createdAt,value
2023-05-18T00:00:31.159Z,8.60
2023-05-18T00:03:02.202Z,8.50
2023-05-18T00:05:34.048Z,8.40
2023-05-18T00:08:02.349Z,8.30
2023-05-18T00:10:31.450Z,8.30
2023-05-18T00:12:59.593Z,8.40
2023-05-18T00:15:28.006Z,8.30
2023-05-18T00:17:57.062Z,8.30
2023-05-18T00:20:27.559Z,8.20
2023-05-18T00:22:56.056Z,8.10
2023-05-18T00:25:24.565Z,8.30
2023-05-18T00:27:52.861Z,8.10
2023-05-18T00:30:21.475Z,8.00
2023-05-18T00:32:49.685Z,7.90
2023-05-18T00:35:17.863Z,7.90
2023-05-18T00:37:47.379Z,7.90
2023-05-18T00:40:15.624Z,7.80
2023-05-18T00:42:43.896Z,7.70
2023-05-18T00:45:12.679Z,7.70
2023-05-18T00:47:41.060Z,7.70
2023-05-18T00:50:10.240Z,7.70
2023-05-18T00:52:39.878Z,7.60
2023-05-18T00:55:13.119Z,7.60
2023-05-18T00:57:44.607Z,7.60
2023-05-18T01:00:14.770Z,7.50
2023-05-18T01:02:45.687Z,7.40
2023-05-18T01:05:14.405Z,7.40
2023-05-18T01:07:43.780Z,7.40
2023-05-18T01:10:16.637Z,7.30
2023-05-18T01:12:52.033Z,7.40
2023-05-18T01:15:24.560Z,7.30
2023-05-18T01:18:10.258Z,7.40
2023-05-18T01:20:47.384Z,7.40
2023-05-18T01:24:05.941Z,7.30
2023-05-18T01:26:41.278Z,7.40
2023-05-18T01:29:13.963Z,7.30
2023-05-18T01:31:42.483Z,7.30
2023-05-18T01:34:10.851Z,7.20
2023-05-18T01:36:39.142Z,7.20
2023-05-18T01:39:07.654Z,7.20
2023-05-18T01:41:42.723Z,7.20
2023-05-18T01:44:18.894Z,7.20
2023-05-18T01:47:00.590Z,7.20
2023-05-18T01:49:36.661Z,7.20
2023-05-18T01:52:10.606Z,7.10
2023-05-18T01:54:45.516Z,7.10
2023-05-18T01:57:17.451Z,7.10
2023-05-18T01:59:46.063Z,7.10
2023-05-18T02:02:14.876Z,7.10
2023-05-18T02:04:43.161Z,7.00
2023-05-18T02:07:11.396Z,7.00
2023-05-18T02:09:39.553Z,7.00
2023-05-18T02:12:08.983Z,7.00
2023-05-18T02:14:38.740Z,6.90
2023-05-18T02:17:07.683Z,7.00
2023-05-18T02:19:38.371Z,7.00
2023-05-18T02:22:08.166Z,6.90
2023-05-18T02:24:36.452Z,6.90
2023-05-18T02:27:06.246Z,6.90
2023-05-18T02:29:34.403Z,6.80
2023-05-18T02:32:04.276Z,6.80
2023-05-18T02:34:33.829Z,6.70
2023-05-18T02:37:04.030Z,6.70
2023-05-18T02:39:33.855Z,6.70
2023-05-18T02:42:02.102Z,6.60
2023-05-18T02:44:30.230Z,6.70
2023-05-18T02:46:58.453Z,6.60
2023-05-18T02:49:28.386Z,6.70
2023-05-18T02:51:56.553Z,6.70
2023-05-18T02:54:24.711Z,6.70
2023-05-18T02:56:56.820Z,6.70
2023-05-18T02:59:25.489Z,6.70
2023-05-18T03:01:53.659Z,6.70
2023-05-18T03:04:25.709Z,6.60
2023-05-18T03:06:57.207Z,6.60
2023-05-18T03:09:25.659Z,6.60
2023-05-18T03:11:53.865Z,6.50
2023-05-18T03:14:22.028Z,6.60
2023-05-18T03:16:53.722Z,6.60
2023-05-18T03:19:22.006Z,6.60
2023-05-18T03:21:50.214Z,6.60
2023-05-18T03:24:20.317Z,6.50
2023-05-18T03:26:48.554Z,6.60
2023-05-18T03:29:16.716Z,6.60
2023-05-18T03:31:44.949Z,6.60
2023-05-18T03:34:13.254Z,6.60
2023-05-18T03:36:42.461Z,6.60
2023-05-18T03:39:10.610Z,6.60
2023-05-18T03:41:40.157Z,6.60
2023-05-18T03:44:08.359Z,6.60
2023-05-18T03:46:36.790Z,6.60
2023-05-18T03:49:07.690Z,6.70
2023-05-18T03:51:35.927Z,6.70
2023-05-18T03:54:04.054Z,6.70
2023-05-18T03:56:32.340Z,6.70
2023-05-18T03:59:01.905Z,6.80
2023-05-18T04:01:32.750Z,6.90
2023-05-18T04:04:01.418Z,6.90
2023-05-18T04:06:30.021Z,6.90
2023-05-18T04:09:02.628Z,6.90
2023-05-18T04:11:30.908Z,6.90
2023-05-18T04:14:00.875Z,7.00
2023-05-18T04:16:31.188Z,7.00
2023-05-18T04:19:00.453Z,7.10
2023-05-18T04:21:35.428Z,7.20
2023-05-18T04:24:04.843Z,7.10
2023-05-18T04:26:34.644Z,7.10
2023-05-18T04:29:03.011Z,7.10
2023-05-18T04:31:32.580Z,7.10
2023-05-18T04:34:00.758Z,7.30
2023-05-18T04:36:30.915Z,7.40
2023-05-18T04:38:59.785Z,7.40
2023-05-18T04:41:28.225Z,7.50
2023-05-18T04:43:56.283Z,7.50
2023-05-18T04:46:24.480Z,7.70
2023-05-18T04:48:57.863Z,7.80
2023-05-18T04:51:26.355Z,7.90
2023-05-18T04:53:55.721Z,8.40
2023-05-18T04:56:23.905Z,9.30
2023-05-18T04:58:52.047Z,10.50
2023-05-18T05:01:20.389Z,11.30
2023-05-18T05:03:48.602Z,11.90
2023-05-18T05:06:18.169Z,11.90
2023-05-18T05:08:46.315Z,11.70
2023-05-18T05:11:14.463Z,11.60
2023-05-18T05:13:42.557Z,11.40
2023-05-18T05:16:10.780Z,10.90
2023-05-18T05:18:38.840Z,10.70
2023-05-18T05:21:07.669Z,10.60
2023-05-18T05:23:37.265Z,11.00
2023-05-18T05:26:06.119Z,11.10
2023-05-18T05:28:34.265Z,11.40
2023-05-18T05:31:02.375Z,11.50
2023-05-18T05:33:30.673Z,11.20
2023-05-18T05:35:58.992Z,11.30
2023-05-18T05:38:27.155Z,11.50
2023-05-18T05:40:56.583Z,11.30
2023-05-18T05:43:24.847Z,11.40
2023-05-18T05:45:53.032Z,11.50
2023-05-18T05:48:21.339Z,11.60
2023-05-18T05:50:49.610Z,11.70
2023-05-18T05:53:19.737Z,11.80
2023-05-18T05:55:47.968Z,11.80
2023-05-18T05:58:17.475Z,11.90
2023-05-18T06:00:47.076Z,11.70
2023-05-18T06:03:15.283Z,11.50
2023-05-18T06:05:43.394Z,11.40
2023-05-18T06:08:11.743Z,11.50
2023-05-18T06:10:41.402Z,11.70
2023-05-18T06:13:09.726Z,11.80
2023-05-18T06:15:39.100Z,11.80
2023-05-18T06:18:07.375Z,12.00
2023-05-18T06:20:35.665Z,12.10
2023-05-18T06:23:03.702Z,11.90
2023-05-18T06:25:32.047Z,12.10
2023-05-18T06:28:00.342Z,12.20
2023-05-18T06:30:28.523Z,12.40
2023-05-18T06:32:58.125Z,12.00
2023-05-18T06:35:26.346Z,12.10
2023-05-18T06:37:54.487Z,12.20
2023-05-18T06:40:22.568Z,12.20
2023-05-18T06:42:50.666Z,12.30
2023-05-18T06:45:19.378Z,12.40
2023-05-18T06:47:48.495Z,12.50
2023-05-18T06:50:18.041Z,12.40
2023-05-18T06:52:46.252Z,12.40
2023-05-18T06:55:15.268Z,12.50
2023-05-18T06:57:43.370Z,12.60
2023-05-18T07:00:13.381Z,12.70
2023-05-18T07:02:43.292Z,12.70
2023-05-18T07:05:11.394Z,12.80
2023-05-18T07:07:41.012Z,12.70
2023-05-18T07:10:10.383Z,12.80
2023-05-18T07:12:38.470Z,12.80
2023-05-18T07:15:08.371Z,12.80
2023-05-18T07:17:36.569Z,12.70
2023-05-18T07:20:06.327Z,12.60
2023-05-18T07:22:34.440Z,12.60
2023-05-18T07:25:04.039Z,12.60
2023-05-18T07:27:33.206Z,12.60
2023-05-18T07:30:01.335Z,12.70
2023-05-18T07:32:29.457Z,12.70
2023-05-18T07:34:57.574Z,12.70
2023-05-18T07:37:25.925Z,12.70
2023-05-18T07:39:54.005Z,12.70
2023-05-18T07:42:23.495Z,12.80
2023-05-18T07:44:52.172Z,12.90
2023-05-18T07:47:21.434Z,13.00
2023-05-18T07:49:49.762Z,12.90
2023-05-18T07:52:17.877Z,13.00
2023-05-18T07:54:46.009Z,13.00
2023-05-18T07:57:14.295Z,13.00
2023-05-18T07:59:43.798Z,13.20
2023-05-18T08:02:11.884Z,13.40
2023-05-18T08:04:39.995Z,13.40
2023-05-18T08:07:08.934Z,13.30
2023-05-18T08:09:37.022Z,13.30
2023-05-18T08:12:06.156Z,13.30
2023-05-18T08:14:34.231Z,13.40
2023-05-18T08:17:05.039Z,13.40
2023-05-18T08:19:33.151Z,13.40
2023-05-18T08:22:01.223Z,13.60
2023-05-18T08:24:29.364Z,13.70
2023-05-18T08:26:57.576Z,13.90
2023-05-18T08:29:25.675Z,14.20
2023-05-18T08:31:53.788Z,14.50
2023-05-18T08:34:23.281Z,14.70
2023-05-18T08:36:52.431Z,15.00
2023-05-18T08:39:22.414Z,15.20
2023-05-18T08:41:58.564Z,15.40
2023-05-18T08:44:39.686Z,15.60
2023-05-18T08:47:11.507Z,15.40
2023-05-18T08:49:43.380Z,15.40
2023-05-18T08:52:18.985Z,15.60
2023-05-18T08:54:49.191Z,15.70
2023-05-18T08:57:23.160Z,16.00
2023-05-18T08:59:55.413Z,16.00
2023-05-18T09:02:25.213Z,16.00
2023-05-18T09:04:57.688Z,16.10
2023-05-18T09:07:27.498Z,16.30
2023-05-18T09:09:58.888Z,16.10
2023-05-18T09:12:29.335Z,16.00
2023-05-18T09:15:00.795Z,16.10
2023-05-18T09:17:28.901Z,16.30
2023-05-18T09:19:58.525Z,16.20
2023-05-18T09:22:26.829Z,16.30
2023-05-18T09:24:55.196Z,16.30
2023-05-18T09:27:24.794Z,16.10
2023-05-18T09:29:54.480Z,16.20
2023-05-18T09:32:23.042Z,16.50
2023-05-18T09:34:51.591Z,16.60
2023-05-18T09:37:22.598Z,16.40
2023-05-18T09:40:00.902Z,16.20
2023-05-18T09:42:36.945Z,16.20
2023-05-18T09:45:05.789Z,15.90
2023-05-18T09:47:35.402Z,16.10
2023-05-18T09:50:03.624Z,16.30
2023-05-18T09:52:42.237Z,16.50
2023-05-18T09:55:11.617Z,16.50
2023-05-18T09:57:44.349Z,16.40
2023-05-18T10:00:15.545Z,15.90
2023-05-18T10:02:49.298Z,15.80
2023-05-18T10:05:23.037Z,15.40
2023-05-18T10:07:54.527Z,15.00
2023-05-18T10:10:26.429Z,14.90
2023-05-18T10:12:55.957Z,14.70
2023-05-18T10:15:25.310Z,14.60
2023-05-18T10:17:58.218Z,14.90
2023-05-18T10:20:27.483Z,15.20
2023-05-18T10:23:01.737Z,15.50
2023-05-18T10:25:31.682Z,15.60
2023-05-18T10:28:07.722Z,15.70
2023-05-18T10:30:37.014Z,15.80
2023-05-18T10:33:14.063Z,15.90
2023-05-18T10:35:51.101Z,15.70
2023-05-18T10:38:23.652Z,15.70
2023-05-18T10:40:55.657Z,15.60
2023-05-18T10:43:27.434Z,15.40
2023-05-18T10:45:59.295Z,15.20
2023-05-18T10:48:30.150Z,14.90
2023-05-18T10:50:59.459Z,14.90
2023-05-18T10:53:29.905Z,15.00
2023-05-18T10:55:58.074Z,15.10
2023-05-18T10:58:30.411Z,15.20
2023-05-18T11:01:03.112Z,15.00
2023-05-18T11:03:33.967Z,15.00
2023-05-18T11:06:08.709Z,15.00
2023-05-18T11:08:45.412Z,15.10
2023-05-18T11:11:13.989Z,15.50
2023-05-18T11:13:48.695Z,15.50
2023-05-18T11:16:18.288Z,15.50
2023-05-18T11:18:49.918Z,15.30
2023-05-18T11:21:51.574Z,15.40
2023-05-18T11:24:35.496Z,15.40
2023-05-18T11:27:15.808Z,15.60
2023-05-18T11:29:46.490Z,15.90
2023-05-18T11:32:30.595Z,16.10
2023-05-18T11:35:00.326Z,16.40
2023-05-18T11:37:50.879Z,16.50
2023-05-18T11:40:48.435Z,16.20
2023-05-18T11:43:23.739Z,16.00
2023-05-18T11:45:58.943Z,16.00
2023-05-18T11:48:30.391Z,15.90
2023-05-18T11:50:58.847Z,15.80
2023-05-18T11:53:28.233Z,16.10
2023-05-18T11:55:57.722Z,16.50
2023-05-18T11:58:26.946Z,17.00
2023-05-18T12:00:58.033Z,17.50
2023-05-18T12:03:27.782Z,17.80
2023-05-18T12:06:01.799Z,17.90
2023-05-18T12:08:30.587Z,17.80
2023-05-18T12:11:02.366Z,17.80
2023-05-18T12:13:31.455Z,17.70
2023-05-18T12:16:00.734Z,17.80
2023-05-18T12:18:30.422Z,17.90
2023-05-18T12:20:58.576Z,18.00
2023-05-18T12:23:38.198Z,18.20
2023-05-18T12:26:08.366Z,18.30
2023-05-18T12:28:37.216Z,18.40
2023-05-18T12:31:08.398Z,18.50
2023-05-18T12:33:36.629Z,18.60
2023-05-18T12:36:10.723Z,18.30
2023-05-18T12:38:38.916Z,18.00
2023-05-18T12:41:08.754Z,18.20
2023-05-18T12:43:37.370Z,18.20
2023-05-18T12:46:06.482Z,18.40
2023-05-18T12:48:38.565Z,18.60
2023-05-18T12:51:07.975Z,18.90
2023-05-18T12:53:43.858Z,18.80
2023-05-18T12:56:13.983Z,18.90
2023-05-18T12:58:44.488Z,18.70
2023-05-18T13:01:12.852Z,18.70
2023-05-18T13:03:42.258Z,18.70
2023-05-18T13:06:10.868Z,18.60
2023-05-18T13:08:39.063Z,18.30
2023-05-18T13:11:14.688Z,18.30
2023-05-18T13:14:04.390Z,18.10
2023-05-18T13:16:34.725Z,18.10
2023-05-18T13:19:06.916Z,18.00
2023-05-18T13:21:36.163Z,18.10
2023-05-18T13:24:05.497Z,18.00
2023-05-18T13:26:33.613Z,18.20
2023-05-18T13:29:03.072Z,18.20
2023-05-18T13:31:31.229Z,18.10
2023-05-18T13:33:59.340Z,18.20
2023-05-18T13:36:29.520Z,18.40
2023-05-18T13:38:57.661Z,18.30
2023-05-18T13:41:25.777Z,17.90
2023-05-18T13:43:53.868Z,17.60
2023-05-18T13:46:23.358Z,17.30
2023-05-18T13:48:51.729Z,17.10
2023-05-18T13:51:19.825Z,17.10
2023-05-18T13:53:47.909Z,17.20
2023-05-18T13:56:16.436Z,17.40
2023-05-18T13:58:44.712Z,17.00
2023-05-18T14:01:14.072Z,16.90
2023-05-18T14:03:43.631Z,17.00
2023-05-18T14:06:11.777Z,17.20
2023-05-18T14:08:39.895Z,17.20
2023-05-18T14:11:07.940Z,17.20
2023-05-18T14:13:36.020Z,17.20
2023-05-18T14:16:04.113Z,17.30
2023-05-18T14:18:32.181Z,17.40
2023-05-18T14:21:03.436Z,17.50
2023-05-18T14:23:31.609Z,17.50
2023-05-18T14:25:59.712Z,17.70
2023-05-18T14:28:27.847Z,17.50
2023-05-18T14:30:55.998Z,17.40
2023-05-18T14:33:24.167Z,17.40
2023-05-18T14:35:52.258Z,17.30
2023-05-18T14:38:21.718Z,17.30
2023-05-18T14:40:49.812Z,17.50
2023-05-18T14:43:17.853Z,17.60
2023-05-18T14:45:50.651Z,17.60
2023-05-18T14:48:24.993Z,17.60
2023-05-18T14:50:53.105Z,17.70
2023-05-18T14:53:22.509Z,17.90
2023-05-18T14:55:50.751Z,18.00
2023-05-18T14:58:18.804Z,17.90
2023-05-18T15:00:46.895Z,17.90
2023-05-18T15:03:15.060Z,18.00
2023-05-18T15:05:44.346Z,18.00
2023-05-18T15:08:12.411Z,18.00
2023-05-18T15:10:41.885Z,17.80
2023-05-18T15:13:09.996Z,17.60
2023-05-18T15:15:38.093Z,17.50
2023-05-18T15:18:06.520Z,17.50
2023-05-18T15:20:34.671Z,17.30
2023-05-18T15:23:02.795Z,17.40
2023-05-18T15:25:30.996Z,17.10
2023-05-18T15:28:00.429Z,17.00
2023-05-18T15:30:29.986Z,17.00
2023-05-18T15:32:58.652Z,16.90
2023-05-18T15:35:26.784Z,17.10
2023-05-18T15:37:54.857Z,17.30
2023-05-18T15:40:23.252Z,17.40
2023-05-18T15:42:51.571Z,17.40
2023-05-18T15:45:21.238Z,17.30
2023-05-18T15:47:49.354Z,17.20
2023-05-18T15:50:17.506Z,16.90
2023-05-18T15:52:45.703Z,16.90
2023-05-18T15:55:13.810Z,16.80
2023-05-18T15:57:42.060Z,16.90
2023-05-18T16:03:05.793Z,17.10
2023-05-18T16:05:34.137Z,17.30
2023-05-18T16:08:02.345Z,17.10
2023-05-18T16:10:30.752Z,17.30
2023-05-18T16:13:05.443Z,17.10
2023-05-18T16:15:39.211Z,17.10
2023-05-18T16:18:09.100Z,16.90
2023-05-18T16:20:37.418Z,16.60
2023-05-18T16:23:05.604Z,16.50
2023-05-18T16:25:33.794Z,16.30
2023-05-18T16:28:01.991Z,16.30
2023-05-18T16:30:30.485Z,16.10
2023-05-18T16:32:58.929Z,16.00
2023-05-18T16:35:30.869Z,16.00
2023-05-18T16:37:59.062Z,16.20
2023-05-18T16:40:27.275Z,16.30
2023-05-18T16:42:55.593Z,16.30
2023-05-18T16:45:25.174Z,16.40
2023-05-18T16:47:54.632Z,16.20
2023-05-18T16:50:22.862Z,16.20
2023-05-18T16:52:52.401Z,16.00
2023-05-18T16:55:20.981Z,16.00
2023-05-18T16:57:49.158Z,15.90
2023-05-18T17:00:18.425Z,15.80
2023-05-18T17:02:47.107Z,15.60
2023-05-18T17:05:17.112Z,15.40
2023-05-18T17:07:45.765Z,15.30
2023-05-18T17:10:15.335Z,15.30
2023-05-18T17:12:43.538Z,15.20
2023-05-18T17:15:12.917Z,15.20
2023-05-18T17:17:42.306Z,15.10
2023-05-18T17:20:12.769Z,15.20
2023-05-18T17:22:41.233Z,15.20
2023-05-18T17:25:10.900Z,15.10
2023-05-18T17:27:40.431Z,15.20
2023-05-18T17:30:10.037Z,15.10
2023-05-18T17:32:38.954Z,15.10
2023-05-18T17:35:10.655Z,15.00
2023-05-18T17:37:40.467Z,15.00
2023-05-18T17:40:10.920Z,15.00
2023-05-18T17:42:40.582Z,14.90
2023-05-18T17:45:10.382Z,14.90
2023-05-18T17:47:39.182Z,14.90
2023-05-18T17:50:09.075Z,14.90
2023-05-18T17:52:37.180Z,14.80
2023-05-18T17:55:06.208Z,14.70
2023-05-18T17:57:34.403Z,14.60
2023-05-18T18:00:06.124Z,14.50
2023-05-18T18:02:34.192Z,14.40
2023-05-18T18:05:02.277Z,14.30
2023-05-18T18:07:30.472Z,14.40
2023-05-18T18:09:59.113Z,14.30
2023-05-18T18:12:27.296Z,14.10
2023-05-18T18:14:55.496Z,14.00
2023-05-18T18:17:25.016Z,14.00
2023-05-18T18:19:53.133Z,13.80
2023-05-18T18:22:21.276Z,13.70
2023-05-18T18:24:49.465Z,13.60
2023-05-18T18:27:19.320Z,13.50
2023-05-18T18:29:48.830Z,13.40
2023-05-18T18:32:17.023Z,13.30
2023-05-18T18:34:46.544Z,13.20
2023-05-18T18:37:14.700Z,13.10
2023-05-18T18:39:42.906Z,13.00
2023-05-18T18:42:11.661Z,13.00
2023-05-18T18:44:39.876Z,13.00
2023-05-18T18:47:08.104Z,12.90
2023-05-18T18:49:36.229Z,12.80
2023-05-18T18:52:06.879Z,12.70
2023-05-18T18:54:34.988Z,12.70
2023-05-18T18:57:04.438Z,12.70
2023-05-18T18:59:34.703Z,12.60
2023-05-18T19:02:02.956Z,12.60
2023-05-18T19:04:31.295Z,12.50
2023-05-18T19:07:03.370Z,12.50
2023-05-18T19:09:34.842Z,12.50
2023-05-18T19:12:03.128Z,12.50
2023-05-18T19:14:32.303Z,12.50
2023-05-18T19:17:00.541Z,12.50
2023-05-18T19:19:29.593Z,12.60
2023-05-18T19:21:57.861Z,12.50
2023-05-18T19:24:26.010Z,12.50
2023-05-18T19:26:55.556Z,12.50
2023-05-18T19:29:24.877Z,12.50
2023-05-18T19:31:55.636Z,12.60
2023-05-18T19:34:24.325Z,12.60
2023-05-18T19:36:53.028Z,12.60
2023-05-18T19:39:21.193Z,12.70
2023-05-18T19:41:49.378Z,12.70
2023-05-18T19:44:18.852Z,12.70
2023-05-18T19:46:46.990Z,12.80
2023-05-18T19:49:15.105Z,12.70
2023-05-18T19:51:43.269Z,12.70
2023-05-18T19:54:11.860Z,12.80
2023-05-18T19:56:40.004Z,12.70
2023-05-18T19:59:08.154Z,12.70
2023-05-18T20:01:37.729Z,12.60
2023-05-18T20:04:06.303Z,12.60
2023-05-18T20:06:34.898Z,12.70
2023-05-18T20:09:03.062Z,12.60
2023-05-18T20:11:31.260Z,12.70
2023-05-18T20:13:59.294Z,12.60
2023-05-18T20:16:29.022Z,12.60
2023-05-18T20:18:59.503Z,12.60
2023-05-18T20:21:28.135Z,12.60
2023-05-18T20:23:56.224Z,12.60
2023-05-18T20:26:26.679Z,12.60
2023-05-18T20:28:55.089Z,12.50
2023-05-18T20:31:23.249Z,12.50
2023-05-18T20:33:53.848Z,12.50
2023-05-18T20:36:23.410Z,12.50
2023-05-18T20:38:52.722Z,12.50
2023-05-18T20:41:23.170Z,12.60
2023-05-18T20:43:51.317Z,12.60
2023-05-18T20:46:23.782Z,12.50
2023-05-18T20:48:54.834Z,12.50
2023-05-18T20:51:24.707Z,12.50
2023-05-18T20:53:52.971Z,12.40
2023-05-18T20:56:21.792Z,12.40
2023-05-18T20:58:50.290Z,12.40
2023-05-18T21:01:18.858Z,12.40
2023-05-18T21:03:47.742Z,12.30
2023-05-18T21:06:15.969Z,12.30
2023-05-18T21:08:45.664Z,12.30
2023-05-18T21:11:13.795Z,12.30
2023-05-18T21:13:41.934Z,12.30
2023-05-18T21:16:10.737Z,12.30
2023-05-18T21:18:38.900Z,12.40
2023-05-18T21:21:07.164Z,12.30
2023-05-18T21:23:35.375Z,12.30
2023-05-18T21:26:05.044Z,12.20
2023-05-18T21:28:33.166Z,12.20
2023-05-18T21:31:01.255Z,12.10
2023-05-18T21:33:29.593Z,12.10
2023-05-18T21:35:58.694Z,12.10
2023-05-18T21:38:26.835Z,12.10
2023-05-18T21:40:56.970Z,12.10
2023-05-18T21:43:26.610Z,12.10
2023-05-18T21:45:54.927Z,12.10
2023-05-18T21:48:23.211Z,12.10
2023-05-18T21:50:51.335Z,12.20
2023-05-18T21:53:20.127Z,12.20
2023-05-18T21:55:48.446Z,12.20
2023-05-18T21:58:16.559Z,12.20
2023-05-18T22:00:46.186Z,12.20
2023-05-18T22:03:14.409Z,12.20
2023-05-18T22:05:44.626Z,12.20
2023-05-18T22:08:12.855Z,12.20
2023-05-18T22:10:41.565Z,12.20
2023-05-18T22:13:10.111Z,12.20
2023-05-18T22:15:40.142Z,12.10
2023-05-18T22:18:11.368Z,12.10
2023-05-18T22:20:40.312Z,12.10
2023-05-18T22:23:09.092Z,12.10
2023-05-18T22:25:37.357Z,12.10
2023-05-18T22:28:05.746Z,12.10
2023-05-18T22:30:34.092Z,12.10
2023-05-18T22:33:03.311Z,12.10
2023-05-18T22:35:32.917Z,12.10
2023-05-18T22:38:01.132Z,12.10
2023-05-18T22:40:29.550Z,12.00
2023-05-18T22:42:58.078Z,12.10
2023-05-18T22:45:26.418Z,12.00
2023-05-18T22:47:54.578Z,12.00
2023-05-18T22:50:22.794Z,12.00
2023-05-18T22:52:52.489Z,12.00
2023-05-18T22:55:21.066Z,12.10
2023-05-18T22:57:49.267Z,12.00
2023-05-18T23:00:19.491Z,12.00
2023-05-18T23:02:47.660Z,12.00
2023-05-18T23:05:16.403Z,11.90
2023-05-18T23:07:44.557Z,11.90
2023-05-18T23:10:14.478Z,11.90
2023-05-18T23:12:42.643Z,11.90
2023-05-18T23:15:11.867Z,11.90
2023-05-18T23:17:40.058Z,11.90
2023-05-18T23:20:11.476Z,11.90
2023-05-18T23:22:39.723Z,11.80
2023-05-18T23:25:09.901Z,11.80
2023-05-18T23:27:39.396Z,11.90
2023-05-18T23:30:08.982Z,11.90
2023-05-18T23:32:38.098Z,11.90
2023-05-18T23:35:08.622Z,11.80
2023-05-18T23:37:42.163Z,11.80
2023-05-18T23:40:13.136Z,11.70
2023-05-18T23:42:43.518Z,11.80
2023-05-18T23:45:13.614Z,11.70
2023-05-18T23:47:42.580Z,11.70
2023-05-18T23:50:12.334Z,11.80
2023-05-18T23:52:42.393Z,11.70
2023-05-18T23:55:13.394Z,11.80
2023-05-18T23:57:43.833Z,11.70
